sensor_id;sensor_type;location;lat;lon;timestamp;temperature;humidity
65378;SHT31;51982;51.042;13.806;2023-07-31T00:02:21;19.49;77.85
65378;SHT31;51982;51.042;13.806;2023-07-31T00:04:47;19.45;77.82
65378;SHT31;51982;51.042;13.806;2023-07-31T00:07:12;19.45;77.62
65378;SHT31;51982;51.042;13.806;2023-07-31T00:09:37;19.43;77.63
65378;SHT31;51982;51.042;13.806;2023-07-31T00:12:03;19.40;77.53
65378;SHT31;51982;51.042;13.806;2023-07-31T00:14:28;19.38;77.36
65378;SHT31;51982;51.042;13.806;2023-07-31T00:16:53;19.38;77.32
65378;SHT31;51982;51.042;13.806;2023-07-31T00:19:19;19.37;77.15
65378;SHT31;51982;51.042;13.806;2023-07-31T00:21:44;19.37;76.98
65378;SHT31;51982;51.042;13.806;2023-07-31T00:24:09;19.36;77.12
65378;SHT31;51982;51.042;13.806;2023-07-31T00:26:35;19.30;77.02
65378;SHT31;51982;51.042;13.806;2023-07-31T00:29:00;19.33;77.10
65378;SHT31;51982;51.042;13.806;2023-07-31T00:31:25;19.28;76.87
65378;SHT31;51982;51.042;13.806;2023-07-31T00:33:50;19.28;76.95
65378;SHT31;51982;51.042;13.806;2023-07-31T00:36:16;19.22;76.61
65378;SHT31;51982;51.042;13.806;2023-07-31T00:38:42;19.23;76.48
65378;SHT31;51982;51.042;13.806;2023-07-31T00:41:08;19.23;76.55
65378;SHT31;51982;51.042;13.806;2023-07-31T00:43:33;19.23;76.42
65378;SHT31;51982;51.042;13.806;2023-07-31T00:45:58;19.23;76.46
65378;SHT31;51982;51.042;13.806;2023-07-31T00:48:23;19.22;76.34
65378;SHT31;51982;51.042;13.806;2023-07-31T00:50:49;19.19;76.38
65378;SHT31;51982;51.042;13.806;2023-07-31T00:53:15;19.16;76.45
65378;SHT31;51982;51.042;13.806;2023-07-31T00:55:40;19.19;76.39
65378;SHT31;51982;51.042;13.806;2023-07-31T00:58:05;19.19;76.44
65378;SHT31;51982;51.042;13.806;2023-07-31T01:00:31;19.19;76.49
65378;SHT31;51982;51.042;13.806;2023-07-31T01:02:56;19.20;76.42
65378;SHT31;51982;51.042;13.806;2023-07-31T01:05:55;19.17;76.23
65378;SHT31;51982;51.042;13.806;2023-07-31T01:08:31;19.20;76.44
65378;SHT31;51982;51.042;13.806;2023-07-31T01:11:04;19.22;76.56
65378;SHT31;51982;51.042;13.806;2023-07-31T01:13:32;19.24;76.59
65378;SHT31;51982;51.042;13.806;2023-07-31T01:15:57;19.23;76.51
65378;SHT31;51982;51.042;13.806;2023-07-31T01:18:23;19.17;76.12
65378;SHT31;51982;51.042;13.806;2023-07-31T01:20:54;19.17;76.16
65378;SHT31;51982;51.042;13.806;2023-07-31T01:26:00;19.13;75.86
65378;SHT31;51982;51.042;13.806;2023-07-31T01:28:33;19.16;75.97
65378;SHT31;51982;51.042;13.806;2023-07-31T01:31:02;19.17;76.03
65378;SHT31;51982;51.042;13.806;2023-07-31T01:33:30;19.16;75.86
65378;SHT31;51982;51.042;13.806;2023-07-31T01:35:56;19.13;76.22
65378;SHT31;51982;51.042;13.806;2023-07-31T01:38:22;19.12;76.29
65378;SHT31;51982;51.042;13.806;2023-07-31T01:40:51;19.12;76.30
65378;SHT31;51982;51.042;13.806;2023-07-31T01:43:16;19.12;76.02
65378;SHT31;51982;51.042;13.806;2023-07-31T01:45:41;19.12;76.25
65378;SHT31;51982;51.042;13.806;2023-07-31T01:48:06;19.10;76.28
65378;SHT31;51982;51.042;13.806;2023-07-31T01:50:32;19.09;76.09
65378;SHT31;51982;51.042;13.806;2023-07-31T01:52:57;19.10;76.03
65378;SHT31;51982;51.042;13.806;2023-07-31T01:55:22;19.10;76.08
65378;SHT31;51982;51.042;13.806;2023-07-31T01:57:47;19.10;75.78
65378;SHT31;51982;51.042;13.806;2023-07-31T02:00:13;19.12;75.60
65378;SHT31;51982;51.042;13.806;2023-07-31T02:02:38;19.13;75.52
65378;SHT31;51982;51.042;13.806;2023-07-31T02:05:04;19.16;75.61
65378;SHT31;51982;51.042;13.806;2023-07-31T02:07:30;19.16;75.61
65378;SHT31;51982;51.042;13.806;2023-07-31T02:09:55;19.17;75.57
65378;SHT31;51982;51.042;13.806;2023-07-31T02:12:20;19.19;75.52
65378;SHT31;51982;51.042;13.806;2023-07-31T02:14:46;19.20;75.54
65378;SHT31;51982;51.042;13.806;2023-07-31T02:17:11;19.17;75.46
65378;SHT31;51982;51.042;13.806;2023-07-31T02:19:36;19.19;75.21
65378;SHT31;51982;51.042;13.806;2023-07-31T02:22:01;19.20;75.33
65378;SHT31;51982;51.042;13.806;2023-07-31T02:24:27;19.22;75.50
65378;SHT31;51982;51.042;13.806;2023-07-31T02:26:52;19.24;75.39
65378;SHT31;51982;51.042;13.806;2023-07-31T02:29:17;19.26;75.17
65378;SHT31;51982;51.042;13.806;2023-07-31T02:31:42;19.26;75.30
65378;SHT31;51982;51.042;13.806;2023-07-31T02:34:08;19.27;75.00
65378;SHT31;51982;51.042;13.806;2023-07-31T02:36:33;19.30;74.86
65378;SHT31;51982;51.042;13.806;2023-07-31T02:38:58;19.31;74.81
65378;SHT31;51982;51.042;13.806;2023-07-31T02:41:23;19.33;74.89
65378;SHT31;51982;51.042;13.806;2023-07-31T02:43:49;19.31;74.90
65378;SHT31;51982;51.042;13.806;2023-07-31T02:46:14;19.36;74.92
65378;SHT31;51982;51.042;13.806;2023-07-31T02:48:39;19.33;74.73
65378;SHT31;51982;51.042;13.806;2023-07-31T02:51:04;19.33;74.63
65378;SHT31;51982;51.042;13.806;2023-07-31T02:53:30;19.38;74.75
65378;SHT31;51982;51.042;13.806;2023-07-31T02:55:55;19.36;74.61
65378;SHT31;51982;51.042;13.806;2023-07-31T02:58:20;19.37;74.71
65378;SHT31;51982;51.042;13.806;2023-07-31T03:00:45;19.37;74.87
65378;SHT31;51982;51.042;13.806;2023-07-31T03:03:11;19.36;74.58
65378;SHT31;51982;51.042;13.806;2023-07-31T03:05:36;19.36;74.69
65378;SHT31;51982;51.042;13.806;2023-07-31T03:08:01;19.37;74.71
65378;SHT31;51982;51.042;13.806;2023-07-31T03:10:27;19.33;74.26
65378;SHT31;51982;51.042;13.806;2023-07-31T03:12:52;19.34;74.47
65378;SHT31;51982;51.042;13.806;2023-07-31T03:15:17;19.36;74.72
65378;SHT31;51982;51.042;13.806;2023-07-31T03:17:43;19.37;74.74
65378;SHT31;51982;51.042;13.806;2023-07-31T03:20:08;19.40;74.87
65378;SHT31;51982;51.042;13.806;2023-07-31T03:22:34;19.40;74.87
65378;SHT31;51982;51.042;13.806;2023-07-31T03:25:00;19.40;74.75
65378;SHT31;51982;51.042;13.806;2023-07-31T03:27:26;19.38;74.81
65378;SHT31;51982;51.042;13.806;2023-07-31T03:29:51;19.38;74.69
65378;SHT31;51982;51.042;13.806;2023-07-31T03:32:17;19.40;74.28
65378;SHT31;51982;51.042;13.806;2023-07-31T03:34:42;19.41;74.09
65378;SHT31;51982;51.042;13.806;2023-07-31T03:37:07;19.41;73.92
65378;SHT31;51982;51.042;13.806;2023-07-31T03:39:34;19.40;73.70
65378;SHT31;51982;51.042;13.806;2023-07-31T03:41:59;19.40;73.78
65378;SHT31;51982;51.042;13.806;2023-07-31T03:44:25;19.40;73.78
65378;SHT31;51982;51.042;13.806;2023-07-31T03:46:50;19.40;73.96
65378;SHT31;51982;51.042;13.806;2023-07-31T03:49:15;19.38;74.35
65378;SHT31;51982;51.042;13.806;2023-07-31T03:51:40;19.40;74.54
65378;SHT31;51982;51.042;13.806;2023-07-31T03:54:06;19.37;75.31
65378;SHT31;51982;51.042;13.806;2023-07-31T03:56:33;19.37;75.99
65378;SHT31;51982;51.042;13.806;2023-07-31T03:58:58;19.34;76.60
65378;SHT31;51982;51.042;13.806;2023-07-31T04:01:23;19.37;76.81
65378;SHT31;51982;51.042;13.806;2023-07-31T04:03:48;19.36;77.09
65378;SHT31;51982;51.042;13.806;2023-07-31T04:06:13;19.36;77.31
65378;SHT31;51982;51.042;13.806;2023-07-31T04:08:43;19.33;77.54
65378;SHT31;51982;51.042;13.806;2023-07-31T04:11:08;19.34;77.79
65378;SHT31;51982;51.042;13.806;2023-07-31T04:13:33;19.28;77.89
65378;SHT31;51982;51.042;13.806;2023-07-31T04:15:58;19.30;77.99
65378;SHT31;51982;51.042;13.806;2023-07-31T04:18:25;19.24;78.32
65378;SHT31;51982;51.042;13.806;2023-07-31T04:20:50;19.27;78.60
65378;SHT31;51982;51.042;13.806;2023-07-31T04:23:15;19.27;78.89
65378;SHT31;51982;51.042;13.806;2023-07-31T04:25:40;19.28;79.15
65378;SHT31;51982;51.042;13.806;2023-07-31T04:28:06;19.27;79.42
65378;SHT31;51982;51.042;13.806;2023-07-31T04:30:32;19.31;79.63
65378;SHT31;51982;51.042;13.806;2023-07-31T04:32:57;19.28;79.90
65378;SHT31;51982;51.042;13.806;2023-07-31T04:35:23;19.30;80.05
65378;SHT31;51982;51.042;13.806;2023-07-31T04:37:48;19.26;80.19
65378;SHT31;51982;51.042;13.806;2023-07-31T04:40:15;19.28;80.36
65378;SHT31;51982;51.042;13.806;2023-07-31T04:42:40;19.34;80.54
65378;SHT31;51982;51.042;13.806;2023-07-31T04:45:06;19.31;80.72
65378;SHT31;51982;51.042;13.806;2023-07-31T04:47:31;19.37;80.63
65378;SHT31;51982;51.042;13.806;2023-07-31T04:49:56;19.33;80.91
65378;SHT31;51982;51.042;13.806;2023-07-31T04:52:21;19.33;81.11
65378;SHT31;51982;51.042;13.806;2023-07-31T04:54:47;19.27;81.41
65378;SHT31;51982;51.042;13.806;2023-07-31T04:57:12;19.34;81.60
65378;SHT31;51982;51.042;13.806;2023-07-31T04:59:37;19.34;81.50
65378;SHT31;51982;51.042;13.806;2023-07-31T05:02:02;19.33;81.33
65378;SHT31;51982;51.042;13.806;2023-07-31T05:04:28;19.37;81.34
65378;SHT31;51982;51.042;13.806;2023-07-31T05:06:53;19.34;81.49
65378;SHT31;51982;51.042;13.806;2023-07-31T05:09:18;19.38;81.53
65378;SHT31;51982;51.042;13.806;2023-07-31T05:11:43;19.36;81.91
65378;SHT31;51982;51.042;13.806;2023-07-31T05:14:09;19.40;81.69
65378;SHT31;51982;51.042;13.806;2023-07-31T05:16:34;19.37;81.69
65378;SHT31;51982;51.042;13.806;2023-07-31T05:18:59;19.37;81.57
65378;SHT31;51982;51.042;13.806;2023-07-31T05:21:25;19.37;81.43
65378;SHT31;51982;51.042;13.806;2023-07-31T05:23:50;19.38;81.51
65378;SHT31;51982;51.042;13.806;2023-07-31T05:26:15;19.41;81.52
65378;SHT31;51982;51.042;13.806;2023-07-31T05:28:41;19.37;81.21
65378;SHT31;51982;51.042;13.806;2023-07-31T05:31:06;19.38;81.24
65378;SHT31;51982;51.042;13.806;2023-07-31T05:33:32;19.36;81.39
65378;SHT31;51982;51.042;13.806;2023-07-31T05:35:57;19.36;81.21
65378;SHT31;51982;51.042;13.806;2023-07-31T05:38:22;19.41;81.25
65378;SHT31;51982;51.042;13.806;2023-07-31T05:40:48;19.38;81.35
65378;SHT31;51982;51.042;13.806;2023-07-31T05:43:13;19.40;81.36
65378;SHT31;51982;51.042;13.806;2023-07-31T05:45:39;19.37;81.15
65378;SHT31;51982;51.042;13.806;2023-07-31T05:48:05;19.38;81.12
65378;SHT31;51982;51.042;13.806;2023-07-31T05:50:30;19.37;80.99
65378;SHT31;51982;51.042;13.806;2023-07-31T05:52:56;19.38;80.96
65378;SHT31;51982;51.042;13.806;2023-07-31T05:55:21;19.41;80.90
65378;SHT31;51982;51.042;13.806;2023-07-31T05:57:46;19.41;80.78
65378;SHT31;51982;51.042;13.806;2023-07-31T06:00:13;19.45;80.79
65378;SHT31;51982;51.042;13.806;2023-07-31T06:02:38;19.41;80.72
65378;SHT31;51982;51.042;13.806;2023-07-31T06:05:04;19.43;80.73
65378;SHT31;51982;51.042;13.806;2023-07-31T06:07:31;19.40;80.65
65378;SHT31;51982;51.042;13.806;2023-07-31T06:09:56;19.46;80.77
65378;SHT31;51982;51.042;13.806;2023-07-31T06:12:27;19.49;80.90
65378;SHT31;51982;51.042;13.806;2023-07-31T06:14:52;19.47;80.66
65378;SHT31;51982;51.042;13.806;2023-07-31T06:17:17;19.46;80.51
65378;SHT31;51982;51.042;13.806;2023-07-31T06:19:43;19.49;80.44
65378;SHT31;51982;51.042;13.806;2023-07-31T06:22:08;19.47;80.52
65378;SHT31;51982;51.042;13.806;2023-07-31T06:24:33;19.53;80.64
65378;SHT31;51982;51.042;13.806;2023-07-31T06:26:59;19.54;80.27
65378;SHT31;51982;51.042;13.806;2023-07-31T06:29:24;19.51;80.08
65378;SHT31;51982;51.042;13.806;2023-07-31T06:31:49;19.57;80.11
65378;SHT31;51982;51.042;13.806;2023-07-31T06:34:14;19.57;80.31
65378;SHT31;51982;51.042;13.806;2023-07-31T06:36:40;19.57;80.29
65378;SHT31;51982;51.042;13.806;2023-07-31T06:39:05;19.61;80.18
65378;SHT31;51982;51.042;13.806;2023-07-31T06:41:30;19.60;80.15
65378;SHT31;51982;51.042;13.806;2023-07-31T06:43:55;19.63;80.15
65378;SHT31;51982;51.042;13.806;2023-07-31T06:46:21;19.64;80.06
65378;SHT31;51982;51.042;13.806;2023-07-31T06:48:46;19.64;80.14
65378;SHT31;51982;51.042;13.806;2023-07-31T06:51:11;19.64;80.41
65378;SHT31;51982;51.042;13.806;2023-07-31T06:53:36;19.66;80.42
65378;SHT31;51982;51.042;13.806;2023-07-31T06:56:02;19.68;80.16
65378;SHT31;51982;51.042;13.806;2023-07-31T06:58:27;19.71;80.13
65378;SHT31;51982;51.042;13.806;2023-07-31T07:00:52;19.75;80.01
65378;SHT31;51982;51.042;13.806;2023-07-31T07:03:18;19.79;79.97
65378;SHT31;51982;51.042;13.806;2023-07-31T07:05:43;19.84;79.89
65378;SHT31;51982;51.042;13.806;2023-07-31T07:08:09;19.88;79.69
65378;SHT31;51982;51.042;13.806;2023-07-31T07:10:34;19.89;79.67
65378;SHT31;51982;51.042;13.806;2023-07-31T07:12:59;19.89;79.62
65378;SHT31;51982;51.042;13.806;2023-07-31T07:15:24;19.95;79.50
65378;SHT31;51982;51.042;13.806;2023-07-31T07:17:50;19.92;79.24
65378;SHT31;51982;51.042;13.806;2023-07-31T07:20:15;19.97;79.15
65378;SHT31;51982;51.042;13.806;2023-07-31T07:22:40;19.99;78.98
65378;SHT31;51982;51.042;13.806;2023-07-31T07:25:08;20.05;79.11
65378;SHT31;51982;51.042;13.806;2023-07-31T07:27:34;20.11;78.71
65378;SHT31;51982;51.042;13.806;2023-07-31T07:29:59;20.14;78.83
65378;SHT31;51982;51.042;13.806;2023-07-31T07:32:24;20.22;78.59
65378;SHT31;51982;51.042;13.806;2023-07-31T07:34:50;20.29;78.63
65378;SHT31;51982;51.042;13.806;2023-07-31T07:37:15;20.36;78.54
65378;SHT31;51982;51.042;13.806;2023-07-31T07:39:41;20.42;78.50
65378;SHT31;51982;51.042;13.806;2023-07-31T07:42:06;20.46;78.32
65378;SHT31;51982;51.042;13.806;2023-07-31T07:44:31;20.52;78.18
65378;SHT31;51982;51.042;13.806;2023-07-31T07:46:57;20.55;78.06
65378;SHT31;51982;51.042;13.806;2023-07-31T07:49:22;20.57;77.90
65378;SHT31;51982;51.042;13.806;2023-07-31T07:51:48;20.55;77.91
65378;SHT31;51982;51.042;13.806;2023-07-31T07:54:14;20.59;77.74
65378;SHT31;51982;51.042;13.806;2023-07-31T07:56:39;20.60;77.67
65378;SHT31;51982;51.042;13.806;2023-07-31T07:59:05;20.59;77.53
65378;SHT31;51982;51.042;13.806;2023-07-31T08:01:30;20.62;77.49
65378;SHT31;51982;51.042;13.806;2023-07-31T08:03:55;20.63;77.69
65378;SHT31;51982;51.042;13.806;2023-07-31T08:06:20;20.65;77.74
65378;SHT31;51982;51.042;13.806;2023-07-31T08:08:46;20.65;77.55
65378;SHT31;51982;51.042;13.806;2023-07-31T08:11:11;20.65;77.39
65378;SHT31;51982;51.042;13.806;2023-07-31T08:13:36;20.69;77.37
65378;SHT31;51982;51.042;13.806;2023-07-31T08:16:03;20.75;77.25
65378;SHT31;51982;51.042;13.806;2023-07-31T08:18:30;20.80;77.32
65378;SHT31;51982;51.042;13.806;2023-07-31T08:20:56;20.89;77.03
65378;SHT31;51982;51.042;13.806;2023-07-31T08:23:21;20.96;76.86
65378;SHT31;51982;51.042;13.806;2023-07-31T08:25:46;21.04;76.94
65378;SHT31;51982;51.042;13.806;2023-07-31T08:28:12;21.04;76.71
65378;SHT31;51982;51.042;13.806;2023-07-31T08:30:37;21.10;76.78
65378;SHT31;51982;51.042;13.806;2023-07-31T08:33:02;21.11;76.64
65378;SHT31;51982;51.042;13.806;2023-07-31T08:35:28;21.13;76.53
65378;SHT31;51982;51.042;13.806;2023-07-31T08:37:53;21.17;76.74
65378;SHT31;51982;51.042;13.806;2023-07-31T08:40:18;21.19;76.69
65378;SHT31;51982;51.042;13.806;2023-07-31T08:42:49;21.17;76.51
65378;SHT31;51982;51.042;13.806;2023-07-31T08:45:15;21.13;76.46
65378;SHT31;51982;51.042;13.806;2023-07-31T08:47:46;21.11;76.34
65378;SHT31;51982;51.042;13.806;2023-07-31T08:50:17;21.10;76.39
65378;SHT31;51982;51.042;13.806;2023-07-31T08:52:43;21.08;76.19
65378;SHT31;51982;51.042;13.806;2023-07-31T08:55:09;21.08;76.30
65378;SHT31;51982;51.042;13.806;2023-07-31T08:57:37;21.08;76.28
65378;SHT31;51982;51.042;13.806;2023-07-31T09:00:04;21.10;76.22
65378;SHT31;51982;51.042;13.806;2023-07-31T09:02:35;21.04;76.07
65378;SHT31;51982;51.042;13.806;2023-07-31T09:05:03;21.08;76.06
65378;SHT31;51982;51.042;13.806;2023-07-31T09:07:31;21.03;75.85
65378;SHT31;51982;51.042;13.806;2023-07-31T09:09:57;21.07;76.06
65378;SHT31;51982;51.042;13.806;2023-07-31T09:12:22;21.01;75.77
65378;SHT31;51982;51.042;13.806;2023-07-31T09:14:47;21.06;75.85
65378;SHT31;51982;51.042;13.806;2023-07-31T09:17:13;21.07;76.04
65378;SHT31;51982;51.042;13.806;2023-07-31T09:19:38;21.06;75.84
65378;SHT31;51982;51.042;13.806;2023-07-31T09:22:05;21.03;75.66
65378;SHT31;51982;51.042;13.806;2023-07-31T09:24:32;21.06;75.91
65378;SHT31;51982;51.042;13.806;2023-07-31T09:26:58;21.06;75.68
65378;SHT31;51982;51.042;13.806;2023-07-31T09:29:25;21.01;75.74
65378;SHT31;51982;51.042;13.806;2023-07-31T09:31:51;21.03;75.60
65378;SHT31;51982;51.042;13.806;2023-07-31T09:34:17;21.04;75.61
65378;SHT31;51982;51.042;13.806;2023-07-31T09:36:47;21.07;75.50
65378;SHT31;51982;51.042;13.806;2023-07-31T09:39:14;21.08;75.62
65378;SHT31;51982;51.042;13.806;2023-07-31T09:41:45;21.13;75.31
65378;SHT31;51982;51.042;13.806;2023-07-31T09:44:11;21.14;75.42
65378;SHT31;51982;51.042;13.806;2023-07-31T09:46:37;21.14;75.45
65378;SHT31;51982;51.042;13.806;2023-07-31T09:49:13;21.20;75.33
65378;SHT31;51982;51.042;13.806;2023-07-31T09:51:40;21.14;75.21
65378;SHT31;51982;51.042;13.806;2023-07-31T09:54:13;21.17;75.25
65378;SHT31;51982;51.042;13.806;2023-07-31T09:56:42;21.15;75.20
65378;SHT31;51982;51.042;13.806;2023-07-31T09:59:11;21.15;75.12
65378;SHT31;51982;51.042;13.806;2023-07-31T10:01:37;21.21;74.91
65378;SHT31;51982;51.042;13.806;2023-07-31T10:04:04;21.23;74.89
65378;SHT31;51982;51.042;13.806;2023-07-31T10:06:30;21.23;75.00
65378;SHT31;51982;51.042;13.806;2023-07-31T10:08:56;21.30;74.99
65378;SHT31;51982;51.042;13.806;2023-07-31T10:11:24;21.28;74.92
65378;SHT31;51982;51.042;13.806;2023-07-31T10:13:52;21.31;74.98
65378;SHT31;51982;51.042;13.806;2023-07-31T10:16:19;21.33;74.95
65378;SHT31;51982;51.042;13.806;2023-07-31T10:18:45;21.35;74.76
65378;SHT31;51982;51.042;13.806;2023-07-31T10:21:11;21.35;74.71
65378;SHT31;51982;51.042;13.806;2023-07-31T10:23:37;21.34;74.50
65378;SHT31;51982;51.042;13.806;2023-07-31T10:26:05;21.40;74.64
65378;SHT31;51982;51.042;13.806;2023-07-31T10:28:32;21.41;74.78
65378;SHT31;51982;51.042;13.806;2023-07-31T10:30:57;21.45;74.95
65378;SHT31;51982;51.042;13.806;2023-07-31T10:33:23;21.48;74.80
65378;SHT31;51982;51.042;13.806;2023-07-31T10:35:48;21.50;74.64
65378;SHT31;51982;51.042;13.806;2023-07-31T10:38:14;21.50;74.41
65378;SHT31;51982;51.042;13.806;2023-07-31T10:40:40;21.50;74.46
65378;SHT31;51982;51.042;13.806;2023-07-31T10:43:06;21.57;74.68
65378;SHT31;51982;51.042;13.806;2023-07-31T10:45:38;21.59;74.51
65378;SHT31;51982;51.042;13.806;2023-07-31T10:48:05;21.65;74.67
65378;SHT31;51982;51.042;13.806;2023-07-31T10:50:33;21.69;74.39
65378;SHT31;51982;51.042;13.806;2023-07-31T10:53:01;21.77;74.29
65378;SHT31;51982;51.042;13.806;2023-07-31T10:55:29;21.84;74.33
65378;SHT31;51982;51.042;13.806;2023-07-31T10:58:09;21.86;74.24
65378;SHT31;51982;51.042;13.806;2023-07-31T11:00:37;21.91;74.14
65378;SHT31;51982;51.042;13.806;2023-07-31T11:03:08;21.89;73.94
65378;SHT31;51982;51.042;13.806;2023-07-31T11:06:00;21.89;73.71
65378;SHT31;51982;51.042;13.806;2023-07-31T11:08:36;21.96;73.88
65378;SHT31;51982;51.042;13.806;2023-07-31T11:11:09;21.99;73.86
65378;SHT31;51982;51.042;13.806;2023-07-31T11:13:48;22.01;73.43
65378;SHT31;51982;51.042;13.806;2023-07-31T11:16:24;22.08;73.79
65378;SHT31;51982;51.042;13.806;2023-07-31T11:18:51;22.13;74.01
65378;SHT31;51982;51.042;13.806;2023-07-31T11:21:21;22.19;74.14
65378;SHT31;51982;51.042;13.806;2023-07-31T11:23:48;22.20;74.16
65378;SHT31;51982;51.042;13.806;2023-07-31T11:26:14;22.19;74.10
65378;SHT31;51982;51.042;13.806;2023-07-31T11:28:40;22.20;73.90
65378;SHT31;51982;51.042;13.806;2023-07-31T11:31:09;22.23;74.25
65378;SHT31;51982;51.042;13.806;2023-07-31T11:33:34;22.22;74.41
65378;SHT31;51982;51.042;13.806;2023-07-31T11:35:59;22.23;74.67
65378;SHT31;51982;51.042;13.806;2023-07-31T11:38:29;22.22;74.93
65378;SHT31;51982;51.042;13.806;2023-07-31T11:41:00;22.20;74.78
65378;SHT31;51982;51.042;13.806;2023-07-31T11:43:27;22.26;74.75
65378;SHT31;51982;51.042;13.806;2023-07-31T11:45:55;22.32;74.42
65378;SHT31;51982;51.042;13.806;2023-07-31T11:48:23;22.39;74.60
65378;SHT31;51982;51.042;13.806;2023-07-31T11:50:51;22.43;74.48
65378;SHT31;51982;51.042;13.806;2023-07-31T11:53:19;22.52;74.45
65378;SHT31;51982;51.042;13.806;2023-07-31T11:55:45;22.60;74.38
65378;SHT31;51982;51.042;13.806;2023-07-31T11:58:12;22.64;74.25
65378;SHT31;51982;51.042;13.806;2023-07-31T12:00:38;22.67;74.12
65378;SHT31;51982;51.042;13.806;2023-07-31T12:03:04;22.71;74.21
65378;SHT31;51982;51.042;13.806;2023-07-31T12:05:29;22.77;74.14
65378;SHT31;51982;51.042;13.806;2023-07-31T12:07:55;22.81;74.20
65378;SHT31;51982;51.042;13.806;2023-07-31T12:10:31;22.84;74.07
65378;SHT31;51982;51.042;13.806;2023-07-31T12:15:29;22.93;74.16
65378;SHT31;51982;51.042;13.806;2023-07-31T12:17:54;22.98;73.73
65378;SHT31;51982;51.042;13.806;2023-07-31T12:20:20;23.00;73.30
65378;SHT31;51982;51.042;13.806;2023-07-31T12:22:45;23.04;73.43
65378;SHT31;51982;51.042;13.806;2023-07-31T12:25:15;23.04;73.11
65378;SHT31;51982;51.042;13.806;2023-07-31T12:27:44;23.08;73.24
65378;SHT31;51982;51.042;13.806;2023-07-31T12:30:33;23.14;72.96
65378;SHT31;51982;51.042;13.806;2023-07-31T12:33:06;23.15;73.19
65378;SHT31;51982;51.042;13.806;2023-07-31T12:35:39;23.21;72.88
65378;SHT31;51982;51.042;13.806;2023-07-31T12:38:05;23.19;72.30
65378;SHT31;51982;51.042;13.806;2023-07-31T12:40:30;23.29;73.05
65378;SHT31;51982;51.042;13.806;2023-07-31T12:42:56;23.35;72.94
65378;SHT31;51982;51.042;13.806;2023-07-31T12:45:21;23.44;72.83
65378;SHT31;51982;51.042;13.806;2023-07-31T12:47:48;23.44;72.31
65378;SHT31;51982;51.042;13.806;2023-07-31T12:50:13;23.47;72.03
65378;SHT31;51982;51.042;13.806;2023-07-31T12:52:38;23.51;71.92
65378;SHT31;51982;51.042;13.806;2023-07-31T12:55:04;23.51;71.21
65378;SHT31;51982;51.042;13.806;2023-07-31T12:57:30;23.54;70.79
65378;SHT31;51982;51.042;13.806;2023-07-31T12:59:55;23.57;70.58
65378;SHT31;51982;51.042;13.806;2023-07-31T13:02:20;23.61;70.50
65378;SHT31;51982;51.042;13.806;2023-07-31T13:04:46;23.61;70.20
65378;SHT31;51982;51.042;13.806;2023-07-31T13:07:11;23.66;70.07
65378;SHT31;51982;51.042;13.806;2023-07-31T13:09:36;23.68;70.00
65378;SHT31;51982;51.042;13.806;2023-07-31T13:12:01;23.72;69.95
65378;SHT31;51982;51.042;13.806;2023-07-31T13:14:27;23.76;70.07
65378;SHT31;51982;51.042;13.806;2023-07-31T13:16:52;23.80;70.09
65378;SHT31;51982;51.042;13.806;2023-07-31T13:19:17;23.83;70.14
65378;SHT31;51982;51.042;13.806;2023-07-31T13:21:43;23.82;69.69
65378;SHT31;51982;51.042;13.806;2023-07-31T13:24:08;23.78;69.80
65378;SHT31;51982;51.042;13.806;2023-07-31T13:26:34;23.76;69.95
65378;SHT31;51982;51.042;13.806;2023-07-31T13:29:01;23.76;69.76
65378;SHT31;51982;51.042;13.806;2023-07-31T13:31:26;23.68;69.61
65378;SHT31;51982;51.042;13.806;2023-07-31T13:33:51;23.69;69.76
65378;SHT31;51982;51.042;13.806;2023-07-31T13:36:16;23.62;69.84
65378;SHT31;51982;51.042;13.806;2023-07-31T13:38:42;23.63;69.92
65378;SHT31;51982;51.042;13.806;2023-07-31T13:41:07;23.66;69.97
65378;SHT31;51982;51.042;13.806;2023-07-31T13:43:32;23.68;69.83
65378;SHT31;51982;51.042;13.806;2023-07-31T13:45:57;23.72;69.79
65378;SHT31;51982;51.042;13.806;2023-07-31T13:48:28;23.75;69.47
65378;SHT31;51982;51.042;13.806;2023-07-31T13:50:53;23.82;68.83
65378;SHT31;51982;51.042;13.806;2023-07-31T13:53:18;23.86;68.47
65378;SHT31;51982;51.042;13.806;2023-07-31T13:55:44;23.86;68.32
65378;SHT31;51982;51.042;13.806;2023-07-31T13:58:10;23.89;68.42
65378;SHT31;51982;51.042;13.806;2023-07-31T14:00:36;23.90;68.43
65378;SHT31;51982;51.042;13.806;2023-07-31T14:03:01;23.96;68.44
65378;SHT31;51982;51.042;13.806;2023-07-31T14:05:26;23.99;68.84
65378;SHT31;51982;51.042;13.806;2023-07-31T14:07:52;24.00;68.54
65378;SHT31;51982;51.042;13.806;2023-07-31T14:10:17;24.02;68.52
65378;SHT31;51982;51.042;13.806;2023-07-31T14:12:42;24.10;68.55
65378;SHT31;51982;51.042;13.806;2023-07-31T14:15:08;24.10;68.37
65378;SHT31;51982;51.042;13.806;2023-07-31T14:17:33;24.09;68.19
65378;SHT31;51982;51.042;13.806;2023-07-31T14:19:58;24.09;68.45
65378;SHT31;51982;51.042;13.806;2023-07-31T14:22:30;24.05;67.92
65378;SHT31;51982;51.042;13.806;2023-07-31T14:24:56;24.03;68.26
65378;SHT31;51982;51.042;13.806;2023-07-31T14:27:21;24.03;68.34
65378;SHT31;51982;51.042;13.806;2023-07-31T14:29:46;24.02;67.97
65378;SHT31;51982;51.042;13.806;2023-07-31T14:32:12;24.08;68.09
65378;SHT31;51982;51.042;13.806;2023-07-31T14:34:37;24.08;67.95
65378;SHT31;51982;51.042;13.806;2023-07-31T14:37:03;24.16;68.09
65378;SHT31;51982;51.042;13.806;2023-07-31T14:39:28;24.24;67.93
65378;SHT31;51982;51.042;13.806;2023-07-31T14:41:53;24.24;68.00
65378;SHT31;51982;51.042;13.806;2023-07-31T14:44:18;24.27;67.59
65378;SHT31;51982;51.042;13.806;2023-07-31T14:46:44;24.19;67.49
65378;SHT31;51982;51.042;13.806;2023-07-31T14:49:09;24.14;67.16
65378;SHT31;51982;51.042;13.806;2023-07-31T14:51:34;24.14;67.26
65378;SHT31;51982;51.042;13.806;2023-07-31T14:54:00;24.12;67.55
65378;SHT31;51982;51.042;13.806;2023-07-31T14:56:25;24.13;67.77
65378;SHT31;51982;51.042;13.806;2023-07-31T14:58:51;24.12;67.71
65378;SHT31;51982;51.042;13.806;2023-07-31T15:01:17;24.17;68.08
65378;SHT31;51982;51.042;13.806;2023-07-31T15:03:42;24.19;68.27
65378;SHT31;51982;51.042;13.806;2023-07-31T15:06:07;24.17;68.08
65378;SHT31;51982;51.042;13.806;2023-07-31T15:08:33;24.23;67.93
65378;SHT31;51982;51.042;13.806;2023-07-31T15:10:58;24.20;67.32
65378;SHT31;51982;51.042;13.806;2023-07-31T15:13:24;24.23;67.24
65378;SHT31;51982;51.042;13.806;2023-07-31T15:15:49;24.23;67.05